Time;durP1;ratioP1;P1;durP2;ratioP2;P2;SDS_P1;SDS_P2;PMS_P1;PMS_P2;Temp;Humidity;BMP_temperature;BMP_pressure;BME280_temperature;BME280_humidity;BME280_pressure;Samples;Min_cycle;Max_cycle;Signal;HPM_P1;HPM_P2
2022/01/07 00:00:34;;;;;;;;;;;21.20;36.90;;;;;;482294;246;2197;-47
2022/01/07 00:02:34;;;;;;;;;;;21.20;37.00;;;;;;482104;247;2362;-46
2022/01/07 00:04:36;;;;;;;;;;;21.20;37.00;;;;;;482391;246;1076;-47
2022/01/07 00:06:37;;;;;;;;;;;21.20;37.00;;;;;;482208;243;1159;-47
2022/01/07 00:08:39;;;;;;;;;;;21.10;37.00;;;;;;482282;246;1054;-47
2022/01/07 00:10:40;;;;;;;;;;;21.10;37.10;;;;;;482721;246;1119;-46
2022/01/07 00:12:41;;;;;;;;;;;21.10;37.10;;;;;;482368;246;1145;-46
2022/01/07 00:14:43;;;;;;;;;;;21.10;37.10;;;;;;482260;246;1153;-46
2022/01/07 00:16:44;;;;;;;;;;;21.10;37.10;;;;;;482665;243;1311;-46
2022/01/07 00:18:45;;;;;;;;;;;21.00;37.20;;;;;;482711;246;1070;-46
2022/01/07 00:20:46;;;;;;;;;;;21.00;37.20;;;;;;482285;246;2193;-46
2022/01/07 00:22:48;;;;;;;;;;;21.00;37.30;;;;;;482233;246;1211;-46
2022/01/07 00:24:49;;;;;;;;;;;21.00;37.30;;;;;;482486;246;1075;-46
2022/01/07 00:26:50;;;;;;;;;;;20.90;37.30;;;;;;482258;246;1299;-46
2022/01/07 00:28:52;;;;;;;;;;;20.90;37.30;;;;;;482460;246;1283;-46
2022/01/07 00:30:53;;;;;;;;;;;20.90;37.30;;;;;;482354;246;1233;-46
2022/01/07 00:32:54;;;;;;;;;;;20.90;37.40;;;;;;482271;246;1245;-47
2022/01/07 00:34:56;;;;;;;;;;;20.90;37.40;;;;;;482720;246;1055;-46
2022/01/07 00:36:57;;;;;;;;;;;20.80;37.40;;;;;;482331;246;1411;-46
2022/01/07 00:38:58;;;;;;;;;;;20.90;37.50;;;;;;482432;246;1310;-46
2022/01/07 00:41:00;;;;;;;;;;;20.90;37.50;;;;;;482703;246;2118;-46
2022/01/07 00:43:01;;;;;;;;;;;20.90;37.40;;;;;;482266;246;1196;-46
2022/01/07 00:45:02;;;;;;;;;;;20.80;37.50;;;;;;482306;246;1092;-46
2022/01/07 00:47:04;;;;;;;;;;;20.80;37.50;;;;;;482272;246;1214;-46
2022/01/07 00:49:05;;;;;;;;;;;20.80;37.50;;;;;;482710;246;1068;-46
2022/01/07 00:51:06;;;;;;;;;;;20.80;37.60;;;;;;482432;246;1162;-46
2022/01/07 00:53:07;;;;;;;;;;;20.80;37.60;;;;;;482356;246;1184;-46
2022/01/07 00:55:09;;;;;;;;;;;20.80;37.50;;;;;;482513;246;1094;-46
2022/01/07 00:57:10;;;;;;;;;;;20.80;37.50;;;;;;482664;246;1105;-46
2022/01/07 00:59:11;;;;;;;;;;;20.80;37.60;;;;;;482301;246;1053;-47
2022/01/07 01:01:13;;;;;;;;;;;20.80;37.50;;;;;;482304;243;2181;-46
2022/01/07 01:03:14;;;;;;;;;;;20.80;37.50;;;;;;482576;246;1045;-46
2022/01/07 01:05:16;;;;;;;;;;;20.80;37.50;;;;;;482381;246;1085;-46
2022/01/07 01:07:17;;;;;;;;;;;20.80;37.50;;;;;;482240;246;1275;-46
2022/01/07 01:09:18;;;;;;;;;;;20.70;37.50;;;;;;482288;246;1093;-46
2022/01/07 01:11:20;;;;;;;;;;;20.70;37.50;;;;;;482260;246;1206;-46
2022/01/07 01:13:21;;;;;;;;;;;20.70;37.60;;;;;;482702;246;1085;-46
2022/01/07 01:15:22;;;;;;;;;;;20.70;37.60;;;;;;482555;246;1193;-46
2022/01/07 01:17:24;;;;;;;;;;;20.60;37.60;;;;;;482217;246;1247;-47
2022/01/07 01:19:25;;;;;;;;;;;20.60;37.60;;;;;;482696;246;1032;-46
2022/01/07 01:21:26;;;;;;;;;;;20.70;37.70;;;;;;482698;246;2201;-46
2022/01/07 01:23:28;;;;;;;;;;;20.60;37.70;;;;;;482642;246;1055;-46
2022/01/07 01:25:29;;;;;;;;;;;20.60;37.70;;;;;;482688;246;1174;-46
2022/01/07 01:27:30;;;;;;;;;;;20.70;37.60;;;;;;482524;246;1108;-46
2022/01/07 01:29:32;;;;;;;;;;;20.70;37.60;;;;;;482283;246;1137;-46
2022/01/07 01:31:35;;;;;;;;;;;20.60;37.60;;;;;;482174;246;1407;-47
2022/01/07 01:33:34;;;;;;;;;;;20.60;37.70;;;;;;482163;247;2559;-46
2022/01/07 01:35:37;;;;;;;;;;;20.60;37.60;;;;;;482261;246;1485;-47
2022/01/07 01:37:37;;;;;;;;;;;20.60;37.60;;;;;;482182;246;2381;-47
2022/01/07 01:39:39;;;;;;;;;;;20.60;37.60;;;;;;482422;246;1079;-46
2022/01/07 01:41:40;;;;;;;;;;;20.60;37.60;;;;;;482380;246;2134;-47
2022/01/07 01:43:41;;;;;;;;;;;20.60;37.70;;;;;;482605;246;1060;-46
2022/01/07 01:45:43;;;;;;;;;;;20.60;37.70;;;;;;482530;246;1444;-46
2022/01/07 01:47:44;;;;;;;;;;;20.60;37.70;;;;;;482391;246;1138;-46
2022/01/07 01:49:45;;;;;;;;;;;20.60;37.60;;;;;;482801;246;1086;-46
2022/01/07 01:51:47;;;;;;;;;;;20.50;37.60;;;;;;482683;246;1339;-46
2022/01/07 01:53:48;;;;;;;;;;;20.50;37.60;;;;;;482665;246;1044;-46
2022/01/07 01:55:49;;;;;;;;;;;20.60;37.70;;;;;;482340;246;1243;-46
2022/01/07 01:57:52;;;;;;;;;;;20.60;37.70;;;;;;482298;246;1132;-46
2022/01/07 01:59:52;;;;;;;;;;;20.50;37.60;;;;;;482707;247;2395;-46
2022/01/07 02:01:54;;;;;;;;;;;20.50;37.70;;;;;;482277;246;2149;-46
2022/01/07 02:03:55;;;;;;;;;;;20.60;37.60;;;;;;482568;246;1109;-46
2022/01/07 02:05:56;;;;;;;;;;;20.50;37.60;;;;;;482601;246;1194;-46
2022/01/07 02:07:57;;;;;;;;;;;20.50;37.70;;;;;;482397;246;1204;-46
2022/01/07 02:09:59;;;;;;;;;;;20.50;37.70;;;;;;482312;246;1206;-46
2022/01/07 02:12:00;;;;;;;;;;;20.50;37.70;;;;;;482445;246;1219;-46
2022/01/07 02:14:02;;;;;;;;;;;20.50;37.70;;;;;;482286;246;1081;-46
2022/01/07 02:16:03;;;;;;;;;;;20.50;37.70;;;;;;482158;246;2326;-46
2022/01/07 02:18:04;;;;;;;;;;;20.50;37.70;;;;;;482243;246;1230;-46
2022/01/07 02:20:05;;;;;;;;;;;20.50;37.70;;;;;;482517;246;1071;-46
2022/01/07 02:22:07;;;;;;;;;;;20.50;37.70;;;;;;482172;246;2130;-46
2022/01/07 02:24:08;;;;;;;;;;;20.50;37.70;;;;;;482252;246;1043;-46
2022/01/07 02:26:10;;;;;;;;;;;20.50;37.70;;;;;;482286;246;1653;-46
2022/01/07 02:28:11;;;;;;;;;;;20.40;37.70;;;;;;482217;246;2085;-46
2022/01/07 02:30:12;;;;;;;;;;;20.50;37.70;;;;;;482295;246;1021;-46
2022/01/07 02:32:13;;;;;;;;;;;20.50;37.70;;;;;;482125;246;1746;-46
2022/01/07 02:34:15;;;;;;;;;;;20.50;37.70;;;;;;482658;246;1048;-46
2022/01/07 02:36:16;;;;;;;;;;;20.50;37.70;;;;;;482255;246;1475;-45
2022/01/07 02:38:17;;;;;;;;;;;20.50;37.70;;;;;;482275;246;1195;-46
2022/01/07 02:40:18;;;;;;;;;;;20.40;37.60;;;;;;482755;246;1083;-46
2022/01/07 02:42:20;;;;;;;;;;;20.40;37.70;;;;;;482436;246;2197;-47
2022/01/07 02:44:21;;;;;;;;;;;20.40;37.70;;;;;;482316;246;1023;-46
2022/01/07 02:46:22;;;;;;;;;;;20.40;37.70;;;;;;482521;246;1293;-46
2022/01/07 02:48:24;;;;;;;;;;;20.30;37.70;;;;;;482684;246;1074;-46
2022/01/07 02:50:25;;;;;;;;;;;20.40;37.90;;;;;;482433;246;999;-46
2022/01/07 02:52:26;;;;;;;;;;;20.40;37.70;;;;;;482502;246;1215;-46
2022/01/07 02:54:28;;;;;;;;;;;20.40;37.70;;;;;;482396;246;1162;-46
2022/01/07 02:56:29;;;;;;;;;;;20.40;37.70;;;;;;482501;246;1329;-46
2022/01/07 02:58:30;;;;;;;;;;;20.40;37.70;;;;;;482393;246;1064;-47
2022/01/07 03:00:32;;;;;;;;;;;20.40;37.80;;;;;;482639;243;1448;-46
2022/01/07 03:02:33;;;;;;;;;;;20.30;37.70;;;;;;482182;246;2208;-46
2022/01/07 03:04:34;;;;;;;;;;;20.40;37.80;;;;;;482576;246;1068;-46
2022/01/07 03:06:35;;;;;;;;;;;20.40;37.70;;;;;;482336;246;1168;-46
2022/01/07 03:08:37;;;;;;;;;;;20.40;37.70;;;;;;482236;246;1326;-46
2022/01/07 03:10:38;;;;;;;;;;;20.40;37.70;;;;;;482285;246;1349;-46
2022/01/07 03:12:42;;;;;;;;;;;20.30;37.70;;;;;;482147;246;1169;-47
2022/01/07 03:14:41;;;;;;;;;;;20.40;37.70;;;;;;482591;247;1999;-46
2022/01/07 03:16:42;;;;;;;;;;;20.40;37.70;;;;;;482382;246;1334;-46
2022/01/07 03:18:43;;;;;;;;;;;20.30;37.70;;;;;;482654;246;1190;-47
2022/01/07 03:20:45;;;;;;;;;;;20.40;37.80;;;;;;482692;246;1190;-46
2022/01/07 03:22:46;;;;;;;;;;;20.30;37.80;;;;;;482650;246;2130;-46
2022/01/07 03:24:47;;;;;;;;;;;20.30;37.80;;;;;;482331;246;1008;-46
2022/01/07 03:26:49;;;;;;;;;;;20.30;37.80;;;;;;482546;246;1164;-46
2022/01/07 03:28:50;;;;;;;;;;;20.30;37.80;;;;;;482759;246;1172;-46
2022/01/07 03:30:51;;;;;;;;;;;20.30;37.70;;;;;;482723;246;1368;-46
2022/01/07 03:32:53;;;;;;;;;;;20.40;37.80;;;;;;482231;246;1225;-46
2022/01/07 03:34:54;;;;;;;;;;;20.30;37.80;;;;;;482301;246;1061;-46
2022/01/07 03:36:55;;;;;;;;;;;20.30;37.70;;;;;;482254;246;1189;-46
2022/01/07 03:39:00;;;;;;;;;;;20.40;37.50;;;;;;482379;246;1034;-46
2022/01/07 03:40:58;;;;;;;;;;;20.60;37.10;;;;;;482098;246;1544;-46
2022/01/07 03:43:00;;;;;;;;;;;20.80;36.70;;;;;;482688;246;2193;-47
2022/01/07 03:45:01;;;;;;;;;;;21.00;36.50;;;;;;482736;246;1040;-47
2022/01/07 03:47:02;;;;;;;;;;;21.10;36.20;;;;;;482277;246;1210;-45
2022/01/07 03:49:04;;;;;;;;;;;21.20;36.00;;;;;;482703;246;1150;-46
2022/01/07 03:51:05;;;;;;;;;;;21.30;35.90;;;;;;482507;243;1491;-46
2022/01/07 03:53:06;;;;;;;;;;;21.40;35.80;;;;;;482333;246;1335;-47
2022/01/07 03:55:08;;;;;;;;;;;21.40;35.70;;;;;;482355;246;1493;-46
2022/01/07 03:57:09;;;;;;;;;;;21.50;35.50;;;;;;482180;246;1680;-47
2022/01/07 03:59:10;;;;;;;;;;;21.60;35.50;;;;;;482728;246;1229;-46
2022/01/07 04:01:12;;;;;;;;;;;21.60;35.40;;;;;;482304;246;1243;-46
2022/01/07 04:03:13;;;;;;;;;;;21.60;35.30;;;;;;482201;246;2204;-47
2022/01/07 04:05:15;;;;;;;;;;;21.70;35.30;;;;;;482731;246;1208;-46
2022/01/07 04:07:16;;;;;;;;;;;21.70;35.10;;;;;;482381;247;2060;-46
2022/01/07 04:09:17;;;;;;;;;;;21.80;35.10;;;;;;482691;246;1055;-47
2022/01/07 04:11:18;;;;;;;;;;;21.80;35.00;;;;;;482483;243;1132;-47
2022/01/07 04:13:19;;;;;;;;;;;21.80;35.00;;;;;;482705;246;1275;-46
2022/01/07 04:15:23;;;;;;;;;;;21.90;35.00;;;;;;482285;246;1070;-46
2022/01/07 04:17:23;;;;;;;;;;;21.90;34.90;;;;;;482152;247;2186;-46
2022/01/07 04:19:24;;;;;;;;;;;21.90;34.80;;;;;;482314;246;1182;-47
2022/01/07 04:21:25;;;;;;;;;;;21.90;34.80;;;;;;482547;246;2196;-47
2022/01/07 04:23:27;;;;;;;;;;;21.90;34.80;;;;;;482432;246;1125;-47
2022/01/07 04:25:28;;;;;;;;;;;22.00;34.80;;;;;;482409;246;1073;-47
2022/01/07 04:27:29;;;;;;;;;;;22.00;34.80;;;;;;482404;246;1228;-46
2022/01/07 04:29:31;;;;;;;;;;;22.00;34.70;;;;;;482290;246;1198;-47
2022/01/07 04:31:32;;;;;;;;;;;22.00;34.70;;;;;;482226;246;1073;-47
2022/01/07 04:33:34;;;;;;;;;;;22.00;34.60;;;;;;482680;246;1109;-46
2022/01/07 04:35:35;;;;;;;;;;;22.00;34.60;;;;;;482400;246;2220;-46
2022/01/07 04:37:36;;;;;;;;;;;22.10;34.60;;;;;;482310;246;1269;-46
2022/01/07 04:39:37;;;;;;;;;;;22.10;34.60;;;;;;482303;246;1055;-47
2022/01/07 04:41:38;;;;;;;;;;;22.10;34.60;;;;;;482190;246;2189;-46
2022/01/07 04:43:40;;;;;;;;;;;22.10;34.50;;;;;;482747;246;1074;-47
2022/01/07 04:45:41;;;;;;;;;;;22.10;34.50;;;;;;482493;246;1098;-47
2022/01/07 04:47:42;;;;;;;;;;;22.10;34.40;;;;;;482440;246;1257;-47
2022/01/07 04:49:44;;;;;;;;;;;22.20;34.50;;;;;;482438;246;1081;-47
2022/01/07 04:51:45;;;;;;;;;;;22.20;34.50;;;;;;482608;246;1305;-47
2022/01/07 04:53:46;;;;;;;;;;;22.20;34.50;;;;;;482391;246;1190;-47
2022/01/07 04:55:48;;;;;;;;;;;22.20;34.40;;;;;;482494;246;1237;-47
2022/01/07 04:57:49;;;;;;;;;;;22.20;34.40;;;;;;482246;246;1218;-47
2022/01/07 04:59:50;;;;;;;;;;;22.20;34.40;;;;;;482501;246;1328;-47
2022/01/07 05:01:52;;;;;;;;;;;22.20;34.30;;;;;;482565;246;2145;-47
2022/01/07 05:03:53;;;;;;;;;;;22.30;34.40;;;;;;482447;246;1062;-46
2022/01/07 05:06:05;;;;;;;;;;;22.30;34.30;;;;;;482232;246;1336;-46
2022/01/07 05:07:56;;;;;;;;;;;22.30;34.40;;;;;;481616;247;1425;-46
2022/01/07 05:09:58;;;;;;;;;;;22.30;34.30;;;;;;482684;246;1044;-47
2022/01/07 05:11:59;;;;;;;;;;;22.30;34.30;;;;;;482226;246;1219;-46
2022/01/07 05:14:00;;;;;;;;;;;22.30;34.30;;;;;;482320;246;1062;-47
2022/01/07 05:16:02;;;;;;;;;;;22.30;34.20;;;;;;482433;246;1286;-47
2022/01/07 05:18:03;;;;;;;;;;;22.30;34.30;;;;;;482227;246;1254;-46
2022/01/07 05:20:04;;;;;;;;;;;22.30;34.30;;;;;;482705;246;1386;-47
2022/01/07 05:22:06;;;;;;;;;;;22.30;34.20;;;;;;482332;246;2145;-47
2022/01/07 05:24:07;;;;;;;;;;;22.30;34.20;;;;;;482270;246;1091;-47
2022/01/07 05:26:08;;;;;;;;;;;22.30;34.20;;;;;;482707;246;1223;-47
2022/01/07 05:28:09;;;;;;;;;;;22.40;34.20;;;;;;482660;246;1071;-47
2022/01/07 05:30:11;;;;;;;;;;;22.40;34.20;;;;;;482775;246;1042;-47
2022/01/07 05:32:12;;;;;;;;;;;22.40;34.20;;;;;;482646;246;1289;-46
2022/01/07 05:34:13;;;;;;;;;;;22.40;34.20;;;;;;482260;246;1098;-47
2022/01/07 05:36:15;;;;;;;;;;;22.40;34.10;;;;;;482401;246;1438;-46
2022/01/07 05:38:16;;;;;;;;;;;22.40;34.10;;;;;;482256;246;1076;-47
2022/01/07 05:40:17;;;;;;;;;;;22.40;34.10;;;;;;482759;246;1052;-46
2022/01/07 05:42:19;;;;;;;;;;;22.40;34.10;;;;;;482304;246;2188;-47
2022/01/07 05:44:21;;;;;;;;;;;22.40;34.10;;;;;;482595;246;1057;-47
2022/01/07 05:46:21;;;;;;;;;;;22.50;34.10;;;;;;482318;247;2394;-46
2022/01/07 05:48:23;;;;;;;;;;;22.50;34.10;;;;;;482366;246;1226;-47
2022/01/07 05:50:24;;;;;;;;;;;22.50;34.10;;;;;;482743;246;1044;-46
2022/01/07 05:52:25;;;;;;;;;;;22.50;34.10;;;;;;482367;246;1325;-47
2022/01/07 05:54:27;;;;;;;;;;;22.50;34.10;;;;;;482446;246;1042;-46
2022/01/07 05:56:28;;;;;;;;;;;22.50;34.00;;;;;;482389;246;1194;-47
2022/01/07 05:58:29;;;;;;;;;;;22.50;34.10;;;;;;482751;246;1118;-46
2022/01/07 06:00:30;;;;;;;;;;;22.50;34.10;;;;;;482703;246;1082;-47
2022/01/07 06:02:32;;;;;;;;;;;22.50;34.00;;;;;;482420;246;2192;-46
2022/01/07 06:04:33;;;;;;;;;;;22.50;34.00;;;;;;482767;246;1089;-47
2022/01/07 06:06:34;;;;;;;;;;;22.50;34.00;;;;;;482471;246;1116;-47
2022/01/07 06:08:36;;;;;;;;;;;22.50;34.00;;;;;;482288;246;1223;-47
2022/01/07 06:10:37;;;;;;;;;;;22.60;34.00;;;;;;482331;246;1608;-47
2022/01/07 06:12:39;;;;;;;;;;;22.60;34.00;;;;;;482313;246;1092;-47
2022/01/07 06:14:40;;;;;;;;;;;22.60;34.00;;;;;;482514;246;1372;-47
2022/01/07 06:16:42;;;;;;;;;;;22.60;34.00;;;;;;482274;246;1178;-46
2022/01/07 06:18:51;;;;;;;;;;;22.60;34.00;;;;;;482253;246;1240;-47
2022/01/07 06:20:52;;;;;;;;;;;22.60;33.90;;;;;;482241;246;1272;-47
2022/01/07 06:22:53;;;;;;;;;;;22.60;33.90;;;;;;482193;246;2192;-46
2022/01/07 06:24:55;;;;;;;;;;;22.60;33.90;;;;;;482301;246;1072;-46
2022/01/07 06:26:56;;;;;;;;;;;22.60;34.00;;;;;;482553;246;1245;-47
2022/01/07 06:28:57;;;;;;;;;;;22.60;33.90;;;;;;482320;246;1220;-47
2022/01/07 06:30:59;;;;;;;;;;;22.60;33.90;;;;;;482707;246;1490;-47
2022/01/07 06:33:00;;;;;;;;;;;22.60;33.90;;;;;;482250;246;1186;-47
2022/01/07 06:35:01;;;;;;;;;;;22.60;33.90;;;;;;482461;246;1072;-47
2022/01/07 06:37:03;;;;;;;;;;;22.60;33.90;;;;;;482181;246;1203;-47
2022/01/07 06:39:04;;;;;;;;;;;22.60;33.90;;;;;;482310;246;1263;-46
2022/01/07 06:41:05;;;;;;;;;;;22.60;33.90;;;;;;482281;246;1156;-47
2022/01/07 06:43:07;;;;;;;;;;;22.60;33.90;;;;;;482265;246;2113;-46
2022/01/07 06:45:08;;;;;;;;;;;22.70;33.90;;;;;;482670;247;1041;-46
2022/01/07 06:47:10;;;;;;;;;;;22.70;33.90;;;;;;482520;246;1316;-47
2022/01/07 06:49:13;;;;;;;;;;;22.60;33.80;;;;;;482457;246;1151;-47
2022/01/07 06:51:12;;;;;;;;;;;22.60;33.90;;;;;;482434;247;2109;-47
2022/01/07 06:53:14;;;;;;;;;;;22.70;33.90;;;;;;482683;246;1108;-47
2022/01/07 06:55:15;;;;;;;;;;;22.70;33.90;;;;;;482517;246;1048;-47
2022/01/07 06:57:16;;;;;;;;;;;22.70;33.90;;;;;;482170;246;1141;-47
2022/01/07 06:59:18;;;;;;;;;;;22.70;33.90;;;;;;482624;246;1038;-47
2022/01/07 07:01:20;;;;;;;;;;;22.70;33.90;;;;;;482670;246;1410;-47
2022/01/07 07:03:20;;;;;;;;;;;22.70;33.90;;;;;;482567;246;2142;-47
2022/01/07 07:05:24;;;;;;;;;;;22.70;33.90;;;;;;482659;246;1082;-47
2022/01/07 07:07:23;;;;;;;;;;;22.70;33.90;;;;;;482147;247;2095;-46
2022/01/07 07:09:24;;;;;;;;;;;22.70;33.80;;;;;;482305;246;1067;-46
2022/01/07 07:11:26;;;;;;;;;;;22.70;33.80;;;;;;482454;246;1723;-47
2022/01/07 07:13:27;;;;;;;;;;;22.70;33.70;;;;;;482730;246;1107;-47
2022/01/07 07:15:28;;;;;;;;;;;22.70;33.80;;;;;;482621;246;1091;-47
2022/01/07 07:17:30;;;;;;;;;;;22.70;33.60;;;;;;482540;246;1127;-47
2022/01/07 07:19:31;;;;;;;;;;;22.70;33.60;;;;;;482457;246;1302;-47
2022/01/07 07:21:33;;;;;;;;;;;22.70;33.60;;;;;;482421;246;1148;-46
2022/01/07 07:23:34;;;;;;;;;;;22.80;33.60;;;;;;482396;246;2126;-46
2022/01/07 07:25:35;;;;;;;;;;;22.80;33.50;;;;;;482426;246;1051;-47
2022/01/07 07:27:37;;;;;;;;;;;22.80;33.50;;;;;;482258;246;1193;-47
2022/01/07 07:29:38;;;;;;;;;;;22.80;33.50;;;;;;482655;246;1344;-47
2022/01/07 07:31:43;;;;;;;;;;;22.80;33.40;;;;;;482149;244;1190;-47
2022/01/07 07:34:06;;;;;;;;;;;22.80;33.40;;;;;;482294;247;2310;-47
2022/01/07 07:38:14;;;;;;;;;;;22.80;33.30;;;;;;482286;247;1062;-46
2022/01/07 07:40:16;;;;;;;;;;;22.80;33.30;;;;;;482231;246;1030;-47
2022/01/07 07:42:17;;;;;;;;;;;22.70;33.40;;;;;;482220;246;1444;-47
2022/01/07 07:44:19;;;;;;;;;;;22.70;33.40;;;;;;482437;246;2109;-47
2022/01/07 07:46:20;;;;;;;;;;;22.50;33.70;;;;;;482472;246;1164;-47
2022/01/07 07:48:22;;;;;;;;;;;22.30;34.00;;;;;;482543;247;1244;-46
2022/01/07 07:50:23;;;;;;;;;;;22.10;34.40;;;;;;482283;246;1195;-46
2022/01/07 07:52:24;;;;;;;;;;;21.90;34.70;;;;;;482220;246;1352;-46
2022/01/07 07:54:26;;;;;;;;;;;21.80;34.80;;;;;;482256;246;1173;-47
2022/01/07 07:56:27;;;;;;;;;;;21.70;35.10;;;;;;482493;246;1339;-47
2022/01/07 07:58:29;;;;;;;;;;;21.60;35.20;;;;;;482229;246;1120;-46
2022/01/07 08:00:31;;;;;;;;;;;21.60;35.20;;;;;;482325;246;1400;-46
2022/01/07 08:02:31;;;;;;;;;;;21.50;35.40;;;;;;482418;247;1899;-46
2022/01/07 08:04:32;;;;;;;;;;;21.50;35.40;;;;;;482394;246;2241;-47
2022/01/07 08:06:34;;;;;;;;;;;21.40;35.50;;;;;;482640;246;1341;-47
2022/01/07 08:08:35;;;;;;;;;;;21.40;35.50;;;;;;482296;246;1065;-47
2022/01/07 08:10:44;;;;;;;;;;;21.40;35.50;;;;;;482371;246;1205;-47
2022/01/07 08:12:53;;;;;;;;;;;21.40;35.60;;;;;;481723;247;2248;-46
2022/01/07 08:17:11;;;;;;;;;;;21.30;35.60;;;;;;482187;247;1516;-46
2022/01/07 08:19:12;;;;;;;;;;;21.30;35.60;;;;;;482416;246;1292;-46
2022/01/07 08:21:13;;;;;;;;;;;21.20;35.60;;;;;;482262;243;1242;-47
2022/01/07 08:23:15;;;;;;;;;;;21.20;35.70;;;;;;482562;246;2205;-46
2022/01/07 08:25:16;;;;;;;;;;;21.20;35.70;;;;;;482267;246;1119;-46
2022/01/07 08:27:17;;;;;;;;;;;21.20;35.80;;;;;;482237;246;1180;-46
2022/01/07 08:29:20;;;;;;;;;;;21.10;35.80;;;;;;482292;246;1058;-46
2022/01/07 08:34:53;;;;;;;;;;;21.10;35.90;;;;;;482629;246;1590;-47
2022/01/07 08:35:49;;;;;;;;;;;21.10;35.90;;;;;;482216;247;1688;-46
2022/01/07 08:37:50;;;;;;;;;;;21.10;35.80;;;;;;482629;246;1139;-46
2022/01/07 08:39:53;;;;;;;;;;;21.10;35.80;;;;;;482541;246;1256;-46
2022/01/07 08:41:53;;;;;;;;;;;21.10;35.80;;;;;;482233;247;1361;-46
2022/01/07 08:43:54;;;;;;;;;;;21.10;35.90;;;;;;482396;246;2203;-46
2022/01/07 08:45:55;;;;;;;;;;;21.10;35.80;;;;;;482525;246;1230;-46
2022/01/07 08:47:58;;;;;;;;;;;21.10;35.80;;;;;;482174;246;1246;-46
2022/01/07 08:49:58;;;;;;;;;;;21.00;35.80;;;;;;482259;246;2206;-46
2022/01/07 08:51:59;;;;;;;;;;;21.00;35.80;;;;;;482156;246;1118;-46
2022/01/07 08:54:01;;;;;;;;;;;21.00;35.80;;;;;;482402;246;1148;-46
2022/01/07 08:56:02;;;;;;;;;;;21.00;35.80;;;;;;482517;246;1515;-46
2022/01/07 08:58:04;;;;;;;;;;;21.00;35.80;;;;;;482269;246;1251;-46
2022/01/07 09:00:05;;;;;;;;;;;20.90;35.80;;;;;;482427;246;1081;-46
2022/01/07 09:02:06;;;;;;;;;;;20.90;35.80;;;;;;482517;246;1201;-46
2022/01/07 09:04:08;;;;;;;;;;;21.00;35.80;;;;;;482720;246;2189;-46
2022/01/07 09:06:09;;;;;;;;;;;21.00;35.80;;;;;;482214;246;1224;-46
2022/01/07 09:08:12;;;;;;;;;;;20.90;35.80;;;;;;482632;246;1204;-46
2022/01/07 09:10:12;;;;;;;;;;;20.90;35.80;;;;;;482636;246;2102;-47
2022/01/07 09:12:13;;;;;;;;;;;20.90;35.80;;;;;;482293;246;1518;-46
2022/01/07 09:14:14;;;;;;;;;;;20.90;35.80;;;;;;482734;246;1083;-47
2022/01/07 09:16:16;;;;;;;;;;;20.90;35.80;;;;;;482644;246;1342;-46
2022/01/07 09:18:18;;;;;;;;;;;20.90;35.80;;;;;;482256;246;1175;-46
2022/01/07 09:20:20;;;;;;;;;;;20.90;35.80;;;;;;482483;247;2451;-46
2022/01/07 09:22:20;;;;;;;;;;;20.90;35.80;;;;;;482291;247;2332;-47
2022/01/07 09:24:21;;;;;;;;;;;20.80;35.80;;;;;;482715;246;2193;-47
2022/01/07 09:26:23;;;;;;;;;;;20.80;35.80;;;;;;482248;246;1265;-46
2022/01/07 09:28:24;;;;;;;;;;;20.80;35.80;;;;;;482341;246;1082;-46
2022/01/07 09:30:25;;;;;;;;;;;20.80;35.80;;;;;;482236;246;1252;-46
2022/01/07 09:32:27;;;;;;;;;;;20.80;35.90;;;;;;482198;246;1203;-46
2022/01/07 09:34:28;;;;;;;;;;;20.80;35.90;;;;;;482633;246;1070;-46
2022/01/07 09:36:29;;;;;;;;;;;20.80;35.90;;;;;;482209;246;1231;-46
2022/01/07 09:38:30;;;;;;;;;;;20.80;35.80;;;;;;482410;246;1316;-47
2022/01/07 09:40:32;;;;;;;;;;;20.80;35.90;;;;;;482709;246;1147;-46
2022/01/07 09:42:33;;;;;;;;;;;20.80;35.80;;;;;;482137;246;1234;-46
2022/01/07 09:44:34;;;;;;;;;;;20.80;35.80;;;;;;482446;246;2213;-46
2022/01/07 09:46:36;;;;;;;;;;;20.70;35.90;;;;;;482261;246;1286;-46
2022/01/07 09:48:37;;;;;;;;;;;20.70;35.80;;;;;;482689;246;1176;-46
2022/01/07 09:50:38;;;;;;;;;;;20.80;35.80;;;;;;482534;246;1292;-46
2022/01/07 09:52:40;;;;;;;;;;;20.80;35.70;;;;;;482248;246;1370;-46
2022/01/07 09:54:41;;;;;;;;;;;20.80;35.80;;;;;;482459;246;1127;-46
2022/01/07 09:56:42;;;;;;;;;;;20.80;35.70;;;;;;482561;246;1361;-47
2022/01/07 09:58:44;;;;;;;;;;;20.70;35.80;;;;;;482654;246;1069;-46
2022/01/07 10:00:45;;;;;;;;;;;20.70;35.80;;;;;;482618;246;1131;-47
2022/01/07 10:02:46;;;;;;;;;;;20.70;35.70;;;;;;482314;246;1066;-46
2022/01/07 10:04:48;;;;;;;;;;;20.80;35.80;;;;;;482710;246;2122;-46
2022/01/07 10:06:49;;;;;;;;;;;20.70;35.70;;;;;;482204;246;1277;-46
2022/01/07 10:08:50;;;;;;;;;;;20.70;35.80;;;;;;482354;246;1093;-46
2022/01/07 10:10:52;;;;;;;;;;;20.70;35.80;;;;;;482670;246;1141;-46
2022/01/07 10:12:53;;;;;;;;;;;20.70;35.80;;;;;;482344;246;1214;-46
2022/01/07 10:14:54;;;;;;;;;;;20.70;35.70;;;;;;482208;246;1051;-46
2022/01/07 10:16:55;;;;;;;;;;;20.70;35.70;;;;;;482097;246;1322;-46
2022/01/07 10:18:57;;;;;;;;;;;20.70;35.70;;;;;;482184;246;1076;-46
2022/01/07 10:20:58;;;;;;;;;;;20.70;35.70;;;;;;482110;246;1230;-46
2022/01/07 10:22:59;;;;;;;;;;;20.70;35.70;;;;;;482229;246;1150;-46
2022/01/07 10:25:01;;;;;;;;;;;20.70;35.70;;;;;;482685;246;2185;-47
2022/01/07 10:27:02;;;;;;;;;;;20.70;35.70;;;;;;482302;246;1358;-46
2022/01/07 10:29:03;;;;;;;;;;;20.60;35.70;;;;;;482557;246;1070;-46
2022/01/07 10:31:05;;;;;;;;;;;20.60;35.60;;;;;;482632;246;1216;-46
2022/01/07 10:33:06;;;;;;;;;;;20.70;35.70;;;;;;482280;246;1150;-46
2022/01/07 10:35:07;;;;;;;;;;;20.60;35.70;;;;;;482222;246;1069;-46
2022/01/07 10:37:09;;;;;;;;;;;20.70;35.70;;;;;;482110;246;1194;-46
2022/01/07 10:39:10;;;;;;;;;;;20.60;35.60;;;;;;482243;246;1070;-46
2022/01/07 10:41:12;;;;;;;;;;;20.60;35.60;;;;;;482555;246;1137;-46
2022/01/07 10:43:13;;;;;;;;;;;20.60;35.60;;;;;;482230;246;1110;-47
2022/01/07 10:45:14;;;;;;;;;;;20.60;35.60;;;;;;482266;246;2126;-47
2022/01/07 10:47:15;;;;;;;;;;;20.60;35.60;;;;;;482358;246;1157;-46
2022/01/07 10:49:18;;;;;;;;;;;20.60;35.60;;;;;;482688;246;1292;-46
2022/01/07 10:51:18;;;;;;;;;;;20.60;35.60;;;;;;482325;243;1840;-45
2022/01/07 10:53:19;;;;;;;;;;;20.60;35.50;;;;;;482167;246;1200;-46
2022/01/07 10:55:21;;;;;;;;;;;20.60;35.60;;;;;;482440;246;1053;-46
2022/01/07 10:57:22;;;;;;;;;;;20.60;35.50;;;;;;482200;246;1541;-46
2022/01/07 10:59:23;;;;;;;;;;;20.60;35.60;;;;;;482347;246;1066;-47
2022/01/07 11:01:24;;;;;;;;;;;20.50;35.50;;;;;;482387;246;1168;-46
2022/01/07 11:03:26;;;;;;;;;;;20.60;35.60;;;;;;482166;246;1063;-47
2022/01/07 11:05:27;;;;;;;;;;;20.50;35.60;;;;;;482368;246;2122;-46
2022/01/07 11:07:29;;;;;;;;;;;20.50;35.60;;;;;;482095;246;1208;-46
2022/01/07 11:09:30;;;;;;;;;;;20.50;35.60;;;;;;482324;246;1052;-46
2022/01/07 11:11:31;;;;;;;;;;;20.60;35.50;;;;;;482125;246;1325;-46
2022/01/07 11:13:33;;;;;;;;;;;20.60;35.50;;;;;;482609;246;1216;-46
2022/01/07 11:15:34;;;;;;;;;;;20.60;35.40;;;;;;482350;246;1071;-46
2022/01/07 11:17:36;;;;;;;;;;;20.60;35.40;;;;;;482167;246;1107;-46
2022/01/07 11:19:37;;;;;;;;;;;20.60;35.40;;;;;;482443;246;2511;-47
2022/01/07 11:21:38;;;;;;;;;;;20.60;35.40;;;;;;482304;246;1346;-46
2022/01/07 11:23:41;;;;;;;;;;;20.60;35.50;;;;;;482323;246;1268;-46
2022/01/07 11:25:40;;;;;;;;;;;20.50;35.40;;;;;;482115;246;2520;-46
2022/01/07 11:27:42;;;;;;;;;;;20.60;35.40;;;;;;482090;246;1962;-47
2022/01/07 11:29:43;;;;;;;;;;;20.60;35.40;;;;;;482382;246;1521;-46
2022/01/07 11:31:44;;;;;;;;;;;20.50;35.40;;;;;;482179;246;1533;-46
2022/01/07 11:33:46;;;;;;;;;;;20.50;35.50;;;;;;482645;246;1061;-46
2022/01/07 11:35:48;;;;;;;;;;;20.50;35.40;;;;;;482511;246;1361;-46
2022/01/07 11:37:49;;;;;;;;;;;20.50;35.40;;;;;;482113;246;1226;-46
2022/01/07 11:39:52;;;;;;;;;;;20.50;35.30;;;;;;482492;246;1036;-46
2022/01/07 11:41:53;;;;;;;;;;;20.50;35.40;;;;;;482265;247;2080;-46
2022/01/07 11:43:53;;;;;;;;;;;20.50;35.30;;;;;;482452;247;2363;-46
2022/01/07 11:45:55;;;;;;;;;;;20.50;35.30;;;;;;482571;246;2189;-46
2022/01/07 11:47:55;;;;;;;;;;;20.50;35.30;;;;;;482368;247;2075;-47
2022/01/07 11:49:57;;;;;;;;;;;20.50;35.30;;;;;;482555;246;1075;-46
2022/01/07 11:51:58;;;;;;;;;;;20.50;35.30;;;;;;482184;246;1239;-46
2022/01/07 11:53:59;;;;;;;;;;;20.50;35.30;;;;;;482197;246;1182;-46
2022/01/07 11:56:01;;;;;;;;;;;20.50;35.20;;;;;;482181;246;1376;-46
2022/01/07 11:58:03;;;;;;;;;;;20.50;35.30;;;;;;482191;246;1254;-46
2022/01/07 12:00:03;;;;;;;;;;;20.40;35.30;;;;;;482106;247;2490;-46
2022/01/07 12:02:05;;;;;;;;;;;20.40;35.30;;;;;;482002;246;1331;-46
2022/01/07 12:04:06;;;;;;;;;;;20.40;35.30;;;;;;482108;246;2200;-46